sensor_id;sensor_type;location;lat;lon;timestamp;temperature;humidity
24902;DHT22;31328;51.402;0.016;2023-07-13T00:02:07;17.10;94.00
24902;DHT22;31328;51.402;0.016;2023-07-13T00:04:33;17.10;94.00
24902;DHT22;31328;51.402;0.016;2023-07-13T00:06:59;17.10;94.10
24902;DHT22;31328;51.402;0.016;2023-07-13T00:09:25;17.10;94.10
24902;DHT22;31328;51.402;0.016;2023-07-13T00:11:54;17.10;94.10
24902;DHT22;31328;51.402;0.016;2023-07-13T00:14:20;17.10;94.10
24902;DHT22;31328;51.402;0.016;2023-07-13T00:16:47;17.00;94.10
24902;DHT22;31328;51.402;0.016;2023-07-13T00:19:13;17.00;94.10
24902;DHT22;31328;51.402;0.016;2023-07-13T00:21:39;17.00;94.20
24902;DHT22;31328;51.402;0.016;2023-07-13T00:24:13;17.00;94.10
24902;DHT22;31328;51.402;0.016;2023-07-13T00:26:40;17.00;94.10
24902;DHT22;31328;51.402;0.016;2023-07-13T00:29:06;16.90;94.10
24902;DHT22;31328;51.402;0.016;2023-07-13T00:31:34;16.90;94.10
24902;DHT22;31328;51.402;0.016;2023-07-13T00:34:01;17.00;94.20
24902;DHT22;31328;51.402;0.016;2023-07-13T00:36:29;17.00;94.10
24902;DHT22;31328;51.402;0.016;2023-07-13T00:38:56;16.90;94.10
24902;DHT22;31328;51.402;0.016;2023-07-13T00:41:24;16.90;94.10
24902;DHT22;31328;51.402;0.016;2023-07-13T00:43:50;16.90;94.10
24902;DHT22;31328;51.402;0.016;2023-07-13T00:48:46;16.90;94.10
24902;DHT22;31328;51.402;0.016;2023-07-13T00:51:15;16.80;94.10
24902;DHT22;31328;51.402;0.016;2023-07-13T00:53:43;16.80;94.20
24902;DHT22;31328;51.402;0.016;2023-07-13T00:56:09;16.80;94.20
24902;DHT22;31328;51.402;0.016;2023-07-13T00:58:36;16.80;94.20
24902;DHT22;31328;51.402;0.016;2023-07-13T01:01:04;16.70;94.20
24902;DHT22;31328;51.402;0.016;2023-07-13T01:03:30;16.80;94.30
24902;DHT22;31328;51.402;0.016;2023-07-13T01:05:56;16.70;94.30
24902;DHT22;31328;51.402;0.016;2023-07-13T01:08:22;16.70;94.30
24902;DHT22;31328;51.402;0.016;2023-07-13T01:10:56;16.70;94.30
24902;DHT22;31328;51.402;0.016;2023-07-13T01:13:22;16.70;94.40
24902;DHT22;31328;51.402;0.016;2023-07-13T01:15:50;16.70;94.40
24902;DHT22;31328;51.402;0.016;2023-07-13T01:18:20;16.60;94.40
24902;DHT22;31328;51.402;0.016;2023-07-13T01:23:22;16.60;94.50
24902;DHT22;31328;51.402;0.016;2023-07-13T01:25:52;16.60;94.60
24902;DHT22;31328;51.402;0.016;2023-07-13T01:28:18;16.60;94.60
24902;DHT22;31328;51.402;0.016;2023-07-13T01:30:45;16.60;94.60
24902;DHT22;31328;51.402;0.016;2023-07-13T01:33:12;16.60;94.70
24902;DHT22;31328;51.402;0.016;2023-07-13T01:35:39;16.50;94.70
24902;DHT22;31328;51.402;0.016;2023-07-13T01:38:05;16.50;94.70
24902;DHT22;31328;51.402;0.016;2023-07-13T01:40:31;16.50;94.70
24902;DHT22;31328;51.402;0.016;2023-07-13T01:42:58;16.50;94.80
24902;DHT22;31328;51.402;0.016;2023-07-13T01:45:24;16.40;94.80
24902;DHT22;31328;51.402;0.016;2023-07-13T01:47:50;16.40;94.80
24902;DHT22;31328;51.402;0.016;2023-07-13T01:50:17;16.40;94.80
24902;DHT22;31328;51.402;0.016;2023-07-13T01:52:43;16.40;94.90
24902;DHT22;31328;51.402;0.016;2023-07-13T01:55:09;16.40;94.90
24902;DHT22;31328;51.402;0.016;2023-07-13T01:57:35;16.40;94.90
24902;DHT22;31328;51.402;0.016;2023-07-13T02:00:03;16.40;94.90
24902;DHT22;31328;51.402;0.016;2023-07-13T02:02:41;16.30;94.90
24902;DHT22;31328;51.402;0.016;2023-07-13T02:05:10;16.30;94.90
24902;DHT22;31328;51.402;0.016;2023-07-13T02:07:36;16.30;94.90
24902;DHT22;31328;51.402;0.016;2023-07-13T02:10:04;16.30;94.90
24902;DHT22;31328;51.402;0.016;2023-07-13T02:12:30;16.30;94.90
24902;DHT22;31328;51.402;0.016;2023-07-13T02:14:56;16.30;94.90
24902;DHT22;31328;51.402;0.016;2023-07-13T02:17:22;16.30;95.00
24902;DHT22;31328;51.402;0.016;2023-07-13T02:19:49;16.20;94.90
24902;DHT22;31328;51.402;0.016;2023-07-13T02:22:15;16.20;94.90
24902;DHT22;31328;51.402;0.016;2023-07-13T02:24:41;16.20;94.90
24902;DHT22;31328;51.402;0.016;2023-07-13T02:27:07;16.20;94.90
24902;DHT22;31328;51.402;0.016;2023-07-13T02:29:33;16.20;94.90
24902;DHT22;31328;51.402;0.016;2023-07-13T02:31:59;16.10;95.00
24902;DHT22;31328;51.402;0.016;2023-07-13T02:34:25;16.20;95.00
24902;DHT22;31328;51.402;0.016;2023-07-13T02:36:52;16.10;95.00
24902;DHT22;31328;51.402;0.016;2023-07-13T02:39:18;16.10;95.00
24902;DHT22;31328;51.402;0.016;2023-07-13T02:41:44;16.10;95.10
24902;DHT22;31328;51.402;0.016;2023-07-13T02:44:12;16.10;95.10
24902;DHT22;31328;51.402;0.016;2023-07-13T02:46:39;16.00;95.10
24902;DHT22;31328;51.402;0.016;2023-07-13T02:49:05;16.00;95.10
24902;DHT22;31328;51.402;0.016;2023-07-13T02:51:32;16.00;95.10
24902;DHT22;31328;51.402;0.016;2023-07-13T02:54:04;16.00;95.10
24902;DHT22;31328;51.402;0.016;2023-07-13T02:56:32;16.00;95.10
24902;DHT22;31328;51.402;0.016;2023-07-13T02:58:59;16.00;95.10
24902;DHT22;31328;51.402;0.016;2023-07-13T03:01:26;16.00;95.10
24902;DHT22;31328;51.402;0.016;2023-07-13T03:03:52;16.00;95.10
24902;DHT22;31328;51.402;0.016;2023-07-13T03:06:19;16.00;95.10
24902;DHT22;31328;51.402;0.016;2023-07-13T03:08:51;15.90;95.10
24902;DHT22;31328;51.402;0.016;2023-07-13T03:11:18;16.00;95.20
24902;DHT22;31328;51.402;0.016;2023-07-13T03:13:48;16.00;95.20
24902;DHT22;31328;51.402;0.016;2023-07-13T03:16:15;15.90;95.20
24902;DHT22;31328;51.402;0.016;2023-07-13T03:18:46;15.90;95.20
24902;DHT22;31328;51.402;0.016;2023-07-13T03:21:13;15.90;95.30
24902;DHT22;31328;51.402;0.016;2023-07-13T03:23:39;15.90;95.30
24902;DHT22;31328;51.402;0.016;2023-07-13T03:28:35;15.90;95.30
24902;DHT22;31328;51.402;0.016;2023-07-13T03:31:07;15.90;95.30
24902;DHT22;31328;51.402;0.016;2023-07-13T03:33:34;15.90;95.30
24902;DHT22;31328;51.402;0.016;2023-07-13T03:36:02;15.80;95.30
24902;DHT22;31328;51.402;0.016;2023-07-13T03:38:28;15.80;95.30
24902;DHT22;31328;51.402;0.016;2023-07-13T03:40:55;15.80;95.30
24902;DHT22;31328;51.402;0.016;2023-07-13T03:43:22;15.80;95.30
24902;DHT22;31328;51.402;0.016;2023-07-13T03:45:48;15.80;95.40
24902;DHT22;31328;51.402;0.016;2023-07-13T03:48:14;15.80;95.40
24902;DHT22;31328;51.402;0.016;2023-07-13T03:50:41;15.70;95.30
24902;DHT22;31328;51.402;0.016;2023-07-13T03:53:07;15.70;95.40
24902;DHT22;31328;51.402;0.016;2023-07-13T03:55:34;15.70;95.40
24902;DHT22;31328;51.402;0.016;2023-07-13T03:58:22;15.70;95.50
24902;DHT22;31328;51.402;0.016;2023-07-13T04:00:46;15.70;95.50
24902;DHT22;31328;51.402;0.016;2023-07-13T04:03:12;15.70;95.50
24902;DHT22;31328;51.402;0.016;2023-07-13T04:05:38;15.70;95.60
24902;DHT22;31328;51.402;0.016;2023-07-13T04:08:06;15.70;95.60
24902;DHT22;31328;51.402;0.016;2023-07-13T04:10:33;15.70;95.60
24902;DHT22;31328;51.402;0.016;2023-07-13T04:12:59;15.70;95.70
24902;DHT22;31328;51.402;0.016;2023-07-13T04:15:26;15.70;95.70
24902;DHT22;31328;51.402;0.016;2023-07-13T04:17:52;15.60;95.70
24902;DHT22;31328;51.402;0.016;2023-07-13T04:20:18;15.60;95.70
24902;DHT22;31328;51.402;0.016;2023-07-13T04:22:46;15.60;95.80
24902;DHT22;31328;51.402;0.016;2023-07-13T04:25:12;15.60;95.80
24902;DHT22;31328;51.402;0.016;2023-07-13T04:27:38;15.60;95.80
24902;DHT22;31328;51.402;0.016;2023-07-13T04:30:05;15.60;95.80
24902;DHT22;31328;51.402;0.016;2023-07-13T04:32:32;15.70;95.80
24902;DHT22;31328;51.402;0.016;2023-07-13T04:34:58;15.60;95.80
24902;DHT22;31328;51.402;0.016;2023-07-13T04:37:25;15.70;95.90
24902;DHT22;31328;51.402;0.016;2023-07-13T04:39:51;15.60;95.90
24902;DHT22;31328;51.402;0.016;2023-07-13T04:42:18;15.70;95.90
24902;DHT22;31328;51.402;0.016;2023-07-13T04:44:50;15.60;95.90
24902;DHT22;31328;51.402;0.016;2023-07-13T04:47:17;15.60;96.00
24902;DHT22;31328;51.402;0.016;2023-07-13T04:49:44;15.60;96.00
24902;DHT22;31328;51.402;0.016;2023-07-13T04:52:10;15.60;96.00
24902;DHT22;31328;51.402;0.016;2023-07-13T04:54:36;15.60;96.00
24902;DHT22;31328;51.402;0.016;2023-07-13T04:57:03;15.60;96.00
24902;DHT22;31328;51.402;0.016;2023-07-13T04:59:32;15.60;96.00
24902;DHT22;31328;51.402;0.016;2023-07-13T05:01:59;15.60;96.00
24902;DHT22;31328;51.402;0.016;2023-07-13T05:04:25;15.60;96.00
24902;DHT22;31328;51.402;0.016;2023-07-13T05:06:51;15.60;96.00
24902;DHT22;31328;51.402;0.016;2023-07-13T05:09:17;15.70;96.10
24902;DHT22;31328;51.402;0.016;2023-07-13T05:11:43;15.60;96.00
24902;DHT22;31328;51.402;0.016;2023-07-13T05:14:09;15.70;96.10
24902;DHT22;31328;51.402;0.016;2023-07-13T05:16:36;15.70;96.10
24902;DHT22;31328;51.402;0.016;2023-07-13T05:19:02;15.70;96.10
24902;DHT22;31328;51.402;0.016;2023-07-13T05:21:28;15.70;96.10
24902;DHT22;31328;51.402;0.016;2023-07-13T05:23:54;15.70;96.10
24902;DHT22;31328;51.402;0.016;2023-07-13T05:26:20;15.80;96.10
24902;DHT22;31328;51.402;0.016;2023-07-13T05:28:47;15.80;96.10
24902;DHT22;31328;51.402;0.016;2023-07-13T05:31:13;15.80;96.10
24902;DHT22;31328;51.402;0.016;2023-07-13T05:33:39;15.80;96.10
24902;DHT22;31328;51.402;0.016;2023-07-13T05:36:05;15.90;96.10
24902;DHT22;31328;51.402;0.016;2023-07-13T05:38:32;15.90;96.10
24902;DHT22;31328;51.402;0.016;2023-07-13T05:40:59;15.90;96.10
24902;DHT22;31328;51.402;0.016;2023-07-13T05:43:25;15.90;96.10
24902;DHT22;31328;51.402;0.016;2023-07-13T05:45:52;15.90;96.10
24902;DHT22;31328;51.402;0.016;2023-07-13T05:48:19;15.90;96.10
24902;DHT22;31328;51.402;0.016;2023-07-13T05:50:45;16.00;96.10
24902;DHT22;31328;51.402;0.016;2023-07-13T05:53:11;16.00;96.20
24902;DHT22;31328;51.402;0.016;2023-07-13T05:55:44;16.00;96.20
24902;DHT22;31328;51.402;0.016;2023-07-13T05:58:13;16.10;96.20
24902;DHT22;31328;51.402;0.016;2023-07-13T06:00:39;16.10;96.10
24902;DHT22;31328;51.402;0.016;2023-07-13T06:03:06;16.10;96.10
24902;DHT22;31328;51.402;0.016;2023-07-13T06:05:33;16.10;96.10
24902;DHT22;31328;51.402;0.016;2023-07-13T06:08:00;16.20;96.10
24902;DHT22;31328;51.402;0.016;2023-07-13T06:10:26;16.20;96.10
24902;DHT22;31328;51.402;0.016;2023-07-13T06:12:52;16.20;96.10
24902;DHT22;31328;51.402;0.016;2023-07-13T06:15:18;16.30;96.10
24902;DHT22;31328;51.402;0.016;2023-07-13T06:17:44;16.30;96.10
24902;DHT22;31328;51.402;0.016;2023-07-13T06:20:11;16.40;96.10
24902;DHT22;31328;51.402;0.016;2023-07-13T06:22:37;16.50;96.10
24902;DHT22;31328;51.402;0.016;2023-07-13T06:25:03;16.60;96.20
24902;DHT22;31328;51.402;0.016;2023-07-13T06:27:29;16.80;96.00
24902;DHT22;31328;51.402;0.016;2023-07-13T06:29:56;16.90;95.90
24902;DHT22;31328;51.402;0.016;2023-07-13T06:32:22;16.90;95.80
24902;DHT22;31328;51.402;0.016;2023-07-13T06:34:48;17.10;95.70
24902;DHT22;31328;51.402;0.016;2023-07-13T06:37:14;17.10;95.70
24902;DHT22;31328;51.402;0.016;2023-07-13T06:39:40;17.20;95.60
24902;DHT22;31328;51.402;0.016;2023-07-13T06:42:06;17.20;95.60
24902;DHT22;31328;51.402;0.016;2023-07-13T06:44:32;17.30;95.50
24902;DHT22;31328;51.402;0.016;2023-07-13T06:46:58;17.40;95.50
24902;DHT22;31328;51.402;0.016;2023-07-13T06:49:25;17.40;95.60
24902;DHT22;31328;51.402;0.016;2023-07-13T06:51:51;17.40;95.50
24902;DHT22;31328;51.402;0.016;2023-07-13T06:54:17;17.40;95.60
24902;DHT22;31328;51.402;0.016;2023-07-13T06:56:43;17.50;95.60
24902;DHT22;31328;51.402;0.016;2023-07-13T06:59:10;17.50;95.60
24902;DHT22;31328;51.402;0.016;2023-07-13T07:01:36;17.60;95.50
24902;DHT22;31328;51.402;0.016;2023-07-13T07:04:02;17.60;95.40
24902;DHT22;31328;51.402;0.016;2023-07-13T07:06:29;17.70;95.40
24902;DHT22;31328;51.402;0.016;2023-07-13T07:08:55;17.70;95.40
24902;DHT22;31328;51.402;0.016;2023-07-13T07:11:22;17.80;95.40
24902;DHT22;31328;51.402;0.016;2023-07-13T07:13:49;17.80;95.30
24902;DHT22;31328;51.402;0.016;2023-07-13T07:16:15;17.90;95.30
24902;DHT22;31328;51.402;0.016;2023-07-13T07:18:41;17.90;95.30
24902;DHT22;31328;51.402;0.016;2023-07-13T07:21:08;18.00;95.20
24902;DHT22;31328;51.402;0.016;2023-07-13T07:23:34;18.00;95.20
24902;DHT22;31328;51.402;0.016;2023-07-13T07:26:00;18.10;95.10
24902;DHT22;31328;51.402;0.016;2023-07-13T07:28:26;18.10;95.10
24902;DHT22;31328;51.402;0.016;2023-07-13T07:30:55;18.10;95.10
24902;DHT22;31328;51.402;0.016;2023-07-13T07:33:21;18.20;95.10
24902;DHT22;31328;51.402;0.016;2023-07-13T07:35:47;18.20;95.00
24902;DHT22;31328;51.402;0.016;2023-07-13T07:38:13;18.20;95.00
24902;DHT22;31328;51.402;0.016;2023-07-13T07:40:40;18.30;95.00
24902;DHT22;31328;51.402;0.016;2023-07-13T07:43:07;18.30;95.00
24902;DHT22;31328;51.402;0.016;2023-07-13T07:45:33;18.30;95.00
24902;DHT22;31328;51.402;0.016;2023-07-13T07:48:00;18.30;95.00
24902;DHT22;31328;51.402;0.016;2023-07-13T07:50:26;18.40;95.00
24902;DHT22;31328;51.402;0.016;2023-07-13T07:52:53;18.50;95.00
24902;DHT22;31328;51.402;0.016;2023-07-13T07:55:19;18.60;94.90
24902;DHT22;31328;51.402;0.016;2023-07-13T07:57:45;18.60;94.70
24902;DHT22;31328;51.402;0.016;2023-07-13T08:00:12;18.70;94.70
24902;DHT22;31328;51.402;0.016;2023-07-13T08:02:40;18.80;94.70
24902;DHT22;31328;51.402;0.016;2023-07-13T08:05:07;18.80;94.60
24902;DHT22;31328;51.402;0.016;2023-07-13T08:07:34;18.90;94.50
24902;DHT22;31328;51.402;0.016;2023-07-13T08:10:00;18.90;94.50
24902;DHT22;31328;51.402;0.016;2023-07-13T08:12:26;19.00;94.50
24902;DHT22;31328;51.402;0.016;2023-07-13T08:14:53;19.00;94.40
24902;DHT22;31328;51.402;0.016;2023-07-13T08:17:26;19.00;94.40
24902;DHT22;31328;51.402;0.016;2023-07-13T08:19:52;19.00;94.40
24902;DHT22;31328;51.402;0.016;2023-07-13T08:22:19;19.00;94.30
24902;DHT22;31328;51.402;0.016;2023-07-13T08:24:45;19.00;94.40
24902;DHT22;31328;51.402;0.016;2023-07-13T08:27:11;19.00;94.30
24902;DHT22;31328;51.402;0.016;2023-07-13T08:29:37;19.00;94.40
24902;DHT22;31328;51.402;0.016;2023-07-13T08:32:04;19.10;94.50
24902;DHT22;31328;51.402;0.016;2023-07-13T08:34:31;19.10;94.30
24902;DHT22;31328;51.402;0.016;2023-07-13T08:36:57;19.20;94.30
24902;DHT22;31328;51.402;0.016;2023-07-13T08:39:24;19.20;94.20
24902;DHT22;31328;51.402;0.016;2023-07-13T08:41:57;19.30;94.20
24902;DHT22;31328;51.402;0.016;2023-07-13T08:44:27;19.30;94.20
24902;DHT22;31328;51.402;0.016;2023-07-13T08:46:56;19.30;94.10
24902;DHT22;31328;51.402;0.016;2023-07-13T08:49:24;19.40;94.10
24902;DHT22;31328;51.402;0.016;2023-07-13T08:51:53;19.40;94.10
24902;DHT22;31328;51.402;0.016;2023-07-13T08:54:32;19.50;94.00
24902;DHT22;31328;51.402;0.016;2023-07-13T08:57:02;19.50;93.90
24902;DHT22;31328;51.402;0.016;2023-07-13T08:59:30;19.60;93.80
24902;DHT22;31328;51.402;0.016;2023-07-13T09:04:36;19.60;93.70
24902;DHT22;31328;51.402;0.016;2023-07-13T09:14:50;19.80;93.60
24902;DHT22;31328;51.402;0.016;2023-07-13T09:17:19;19.90;93.60
24902;DHT22;31328;51.402;0.016;2023-07-13T09:19:47;19.90;93.60
24902;DHT22;31328;51.402;0.016;2023-07-13T09:22:15;20.00;93.60
24902;DHT22;31328;51.402;0.016;2023-07-13T09:24:50;20.10;93.50
24902;DHT22;31328;51.402;0.016;2023-07-13T09:27:23;20.20;93.60
24902;DHT22;31328;51.402;0.016;2023-07-13T09:30:33;20.40;93.30
24902;DHT22;31328;51.402;0.016;2023-07-13T09:32:41;20.40;93.30
24902;DHT22;31328;51.402;0.016;2023-07-13T09:35:12;20.40;93.20
24902;DHT22;31328;51.402;0.016;2023-07-13T09:37:39;20.50;93.00
24902;DHT22;31328;51.402;0.016;2023-07-13T09:40:09;20.60;93.00
24902;DHT22;31328;51.402;0.016;2023-07-13T09:42:37;20.60;92.80
24902;DHT22;31328;51.402;0.016;2023-07-13T09:45:04;20.70;92.80
24902;DHT22;31328;51.402;0.016;2023-07-13T09:47:33;20.70;92.80
24902;DHT22;31328;51.402;0.016;2023-07-13T09:50:09;20.80;92.80
24902;DHT22;31328;51.402;0.016;2023-07-13T09:52:39;20.80;92.70
24902;DHT22;31328;51.402;0.016;2023-07-13T09:55:15;20.90;92.80
24902;DHT22;31328;51.402;0.016;2023-07-13T09:57:48;21.00;92.70
24902;DHT22;31328;51.402;0.016;2023-07-13T10:00:36;21.00;92.60
24902;DHT22;31328;51.402;0.016;2023-07-13T10:03:05;21.00;92.40
24902;DHT22;31328;51.402;0.016;2023-07-13T10:05:38;21.00;92.40
24902;DHT22;31328;51.402;0.016;2023-07-13T10:08:04;21.00;92.50
24902;DHT22;31328;51.402;0.016;2023-07-13T10:10:33;21.10;92.40
24902;DHT22;31328;51.402;0.016;2023-07-13T10:13:02;21.10;92.40
24902;DHT22;31328;51.402;0.016;2023-07-13T10:15:30;21.20;92.20
24902;DHT22;31328;51.402;0.016;2023-07-13T10:17:57;21.20;92.30
24902;DHT22;31328;51.402;0.016;2023-07-13T10:20:24;21.30;92.20
24902;DHT22;31328;51.402;0.016;2023-07-13T10:23:05;21.30;92.20
24902;DHT22;31328;51.402;0.016;2023-07-13T10:25:37;21.30;92.00
24902;DHT22;31328;51.402;0.016;2023-07-13T10:30:43;21.30;91.70
24902;DHT22;31328;51.402;0.016;2023-07-13T10:33:12;21.30;91.70
24902;DHT22;31328;51.402;0.016;2023-07-13T10:35:39;21.30;91.50
24902;DHT22;31328;51.402;0.016;2023-07-13T10:38:07;21.30;91.50
24902;DHT22;31328;51.402;0.016;2023-07-13T10:40:43;21.30;91.50
24902;DHT22;31328;51.402;0.016;2023-07-13T10:43:15;21.30;91.60
24902;DHT22;31328;51.402;0.016;2023-07-13T10:45:44;21.30;91.50
24902;DHT22;31328;51.402;0.016;2023-07-13T10:48:12;21.30;91.40
24902;DHT22;31328;51.402;0.016;2023-07-13T10:50:40;21.30;91.50
24902;DHT22;31328;51.402;0.016;2023-07-13T10:58:47;21.10;91.60
24902;DHT22;31328;51.402;0.016;2023-07-13T11:01:27;21.00;91.50
24902;DHT22;31328;51.402;0.016;2023-07-13T11:04:04;21.00;91.50
24902;DHT22;31328;51.402;0.016;2023-07-13T11:06:33;20.90;91.60
24902;DHT22;31328;51.402;0.016;2023-07-13T11:11:44;21.00;92.00
24902;DHT22;31328;51.402;0.016;2023-07-13T11:14:25;21.10;91.90
24902;DHT22;31328;51.402;0.016;2023-07-13T11:16:52;21.20;91.70
24902;DHT22;31328;51.402;0.016;2023-07-13T11:24:33;21.40;91.40
24902;DHT22;31328;51.402;0.016;2023-07-13T11:32:42;21.40;91.40
24902;DHT22;31328;51.402;0.016;2023-07-13T11:35:12;21.40;91.40
24902;DHT22;31328;51.402;0.016;2023-07-13T11:37:39;21.30;91.40
24902;DHT22;31328;51.402;0.016;2023-07-13T11:40:05;21.40;91.40
24902;DHT22;31328;51.402;0.016;2023-07-13T11:42:38;21.40;91.40
24902;DHT22;31328;51.402;0.016;2023-07-13T11:45:12;21.50;91.10
24902;DHT22;31328;51.402;0.016;2023-07-13T11:47:42;21.60;91.00
24902;DHT22;31328;51.402;0.016;2023-07-13T11:50:16;21.70;90.80
24902;DHT22;31328;51.402;0.016;2023-07-13T11:52:43;21.70;90.80
24902;DHT22;31328;51.402;0.016;2023-07-13T11:55:13;21.60;90.70
24902;DHT22;31328;51.402;0.016;2023-07-13T11:57:42;21.60;90.70
24902;DHT22;31328;51.402;0.016;2023-07-13T12:00:15;21.60;90.80
24902;DHT22;31328;51.402;0.016;2023-07-13T12:02:43;21.50;90.70
24902;DHT22;31328;51.402;0.016;2023-07-13T12:05:10;21.50;90.70
24902;DHT22;31328;51.402;0.016;2023-07-13T12:07:38;21.50;90.70
24902;DHT22;31328;51.402;0.016;2023-07-13T12:12:33;21.50;90.40
24902;DHT22;31328;51.402;0.016;2023-07-13T12:15:00;21.40;91.00
24902;DHT22;31328;51.402;0.016;2023-07-13T12:17:26;21.30;91.30
24902;DHT22;31328;51.402;0.016;2023-07-13T12:19:52;21.10;91.70
24902;DHT22;31328;51.402;0.016;2023-07-13T12:22:19;20.80;92.30
24902;DHT22;31328;51.402;0.016;2023-07-13T12:24:46;20.50;92.70
24902;DHT22;31328;51.402;0.016;2023-07-13T12:27:16;20.30;93.20
24902;DHT22;31328;51.402;0.016;2023-07-13T12:29:49;20.10;93.70
24902;DHT22;31328;51.402;0.016;2023-07-13T12:32:17;20.00;94.10
24902;DHT22;31328;51.402;0.016;2023-07-13T12:34:54;19.90;94.40
24902;DHT22;31328;51.402;0.016;2023-07-13T12:37:22;19.90;94.40
24902;DHT22;31328;51.402;0.016;2023-07-13T12:39:49;20.00;94.60
24902;DHT22;31328;51.402;0.016;2023-07-13T12:42:29;20.00;94.50
24902;DHT22;31328;51.402;0.016;2023-07-13T12:45:01;20.10;94.80
24902;DHT22;31328;51.402;0.016;2023-07-13T12:47:28;20.20;94.90
24902;DHT22;31328;51.402;0.016;2023-07-13T12:49:56;20.20;94.70
24902;DHT22;31328;51.402;0.016;2023-07-13T12:52:30;20.20;94.60
24902;DHT22;31328;51.402;0.016;2023-07-13T12:54:58;20.20;94.50
24902;DHT22;31328;51.402;0.016;2023-07-13T12:57:25;20.20;94.70
24902;DHT22;31328;51.402;0.016;2023-07-13T12:59:53;20.30;94.60
24902;DHT22;31328;51.402;0.016;2023-07-13T13:02:26;20.30;94.60
24902;DHT22;31328;51.402;0.016;2023-07-13T13:04:54;20.30;94.60
24902;DHT22;31328;51.402;0.016;2023-07-13T13:07:21;20.30;94.70
24902;DHT22;31328;51.402;0.016;2023-07-13T13:09:47;20.30;95.00
24902;DHT22;31328;51.402;0.016;2023-07-13T13:12:13;20.30;94.70
24902;DHT22;31328;51.402;0.016;2023-07-13T13:14:41;20.20;94.70
24902;DHT22;31328;51.402;0.016;2023-07-13T13:17:15;20.20;94.70
24902;DHT22;31328;51.402;0.016;2023-07-13T13:19:45;20.20;94.60
24902;DHT22;31328;51.402;0.016;2023-07-13T13:22:11;20.10;94.60
24902;DHT22;31328;51.402;0.016;2023-07-13T13:24:38;20.10;94.50
24902;DHT22;31328;51.402;0.016;2023-07-13T13:27:04;20.00;94.40
24902;DHT22;31328;51.402;0.016;2023-07-13T13:29:32;19.90;94.50
24902;DHT22;31328;51.402;0.016;2023-07-13T13:31:59;19.80;94.70
24902;DHT22;31328;51.402;0.016;2023-07-13T13:34:25;19.80;94.70
24902;DHT22;31328;51.402;0.016;2023-07-13T13:36:52;19.80;94.50
24902;DHT22;31328;51.402;0.016;2023-07-13T13:39:20;19.80;94.60
24902;DHT22;31328;51.402;0.016;2023-07-13T13:41:47;19.80;94.70
24902;DHT22;31328;51.402;0.016;2023-07-13T13:44:14;19.80;94.70
24902;DHT22;31328;51.402;0.016;2023-07-13T13:46:41;19.90;94.90
24902;DHT22;31328;51.402;0.016;2023-07-13T13:49:17;20.00;94.80
24902;DHT22;31328;51.402;0.016;2023-07-13T13:51:44;20.20;94.60
24902;DHT22;31328;51.402;0.016;2023-07-13T13:54:10;20.30;94.40
24902;DHT22;31328;51.402;0.016;2023-07-13T13:56:37;20.50;94.30
24902;DHT22;31328;51.402;0.016;2023-07-13T13:59:03;20.50;94.20
24902;DHT22;31328;51.402;0.016;2023-07-13T14:01:30;20.50;94.30
24902;DHT22;31328;51.402;0.016;2023-07-13T14:03:56;20.50;94.30
24902;DHT22;31328;51.402;0.016;2023-07-13T14:06:23;20.40;94.10
24902;DHT22;31328;51.402;0.016;2023-07-13T14:08:49;20.40;94.20
24902;DHT22;31328;51.402;0.016;2023-07-13T14:11:16;20.40;94.30
24902;DHT22;31328;51.402;0.016;2023-07-13T14:13:47;20.30;94.20
24902;DHT22;31328;51.402;0.016;2023-07-13T14:16:15;20.30;94.30
24902;DHT22;31328;51.402;0.016;2023-07-13T14:18:43;20.20;94.40
24902;DHT22;31328;51.402;0.016;2023-07-13T14:21:14;20.10;94.30
24902;DHT22;31328;51.402;0.016;2023-07-13T14:23:41;20.10;94.40
24902;DHT22;31328;51.402;0.016;2023-07-13T14:26:11;20.00;94.40
24902;DHT22;31328;51.402;0.016;2023-07-13T14:28:39;19.90;94.40
24902;DHT22;31328;51.402;0.016;2023-07-13T14:31:08;19.90;94.50
24902;DHT22;31328;51.402;0.016;2023-07-13T14:33:34;19.90;94.40
24902;DHT22;31328;51.402;0.016;2023-07-13T14:36:01;19.80;94.20
24902;DHT22;31328;51.402;0.016;2023-07-13T14:38:27;19.80;94.40
24902;DHT22;31328;51.402;0.016;2023-07-13T14:40:53;19.80;94.40
24902;DHT22;31328;51.402;0.016;2023-07-13T14:43:20;19.90;94.30
24902;DHT22;31328;51.402;0.016;2023-07-13T14:45:47;20.00;94.20
24902;DHT22;31328;51.402;0.016;2023-07-13T14:48:19;20.10;94.00
24902;DHT22;31328;51.402;0.016;2023-07-13T14:50:46;20.30;93.90
24902;DHT22;31328;51.402;0.016;2023-07-13T14:53:12;20.40;93.90
24902;DHT22;31328;51.402;0.016;2023-07-13T14:55:39;20.60;93.70
24902;DHT22;31328;51.402;0.016;2023-07-13T14:58:06;20.80;93.70
24902;DHT22;31328;51.402;0.016;2023-07-13T15:00:32;20.90;93.40
24902;DHT22;31328;51.402;0.016;2023-07-13T15:02:59;21.10;93.20
24902;DHT22;31328;51.402;0.016;2023-07-13T15:05:27;21.10;93.00
24902;DHT22;31328;51.402;0.016;2023-07-13T15:07:56;21.20;92.90
24902;DHT22;31328;51.402;0.016;2023-07-13T15:10:24;21.30;92.80
24902;DHT22;31328;51.402;0.016;2023-07-13T15:12:51;21.50;92.70
24902;DHT22;31328;51.402;0.016;2023-07-13T15:15:17;21.60;92.40
24902;DHT22;31328;51.402;0.016;2023-07-13T15:17:44;21.80;92.50
24902;DHT22;31328;51.402;0.016;2023-07-13T15:20:30;21.80;92.00
24902;DHT22;31328;51.402;0.016;2023-07-13T15:22:57;21.90;92.00
24902;DHT22;31328;51.402;0.016;2023-07-13T15:25:26;22.00;91.90
24902;DHT22;31328;51.402;0.016;2023-07-13T15:27:53;22.00;91.90
24902;DHT22;31328;51.402;0.016;2023-07-13T15:30:19;22.10;91.70
24902;DHT22;31328;51.402;0.016;2023-07-13T15:32:46;22.20;91.60
24902;DHT22;31328;51.402;0.016;2023-07-13T15:35:15;22.30;91.60
24902;DHT22;31328;51.402;0.016;2023-07-13T15:37:42;22.30;91.00
24902;DHT22;31328;51.402;0.016;2023-07-13T15:40:09;22.40;91.20
24902;DHT22;31328;51.402;0.016;2023-07-13T15:42:35;22.40;91.30
24902;DHT22;31328;51.402;0.016;2023-07-13T15:45:05;22.40;91.00
24902;DHT22;31328;51.402;0.016;2023-07-13T15:47:32;22.40;91.20
24902;DHT22;31328;51.402;0.016;2023-07-13T15:49:58;22.40;91.10
24902;DHT22;31328;51.402;0.016;2023-07-13T15:52:24;22.50;91.00
24902;DHT22;31328;51.402;0.016;2023-07-13T15:54:50;22.50;91.00
24902;DHT22;31328;51.402;0.016;2023-07-13T15:57:16;22.50;90.80
24902;DHT22;31328;51.402;0.016;2023-07-13T15:59:43;22.50;90.60
24902;DHT22;31328;51.402;0.016;2023-07-13T16:02:19;22.50;90.50
24902;DHT22;31328;51.402;0.016;2023-07-13T16:04:46;22.40;90.30
24902;DHT22;31328;51.402;0.016;2023-07-13T16:07:13;22.40;90.60
24902;DHT22;31328;51.402;0.016;2023-07-13T16:09:40;22.30;90.30
24902;DHT22;31328;51.402;0.016;2023-07-13T16:12:09;22.30;90.40
24902;DHT22;31328;51.402;0.016;2023-07-13T16:14:36;22.20;90.40
24902;DHT22;31328;51.402;0.016;2023-07-13T16:17:02;22.10;90.50